sensor_id;sensor_type;location;lat;lon;timestamp;temperature;humidity
7331;DHT22;3706;49.198;7.064;2023-07-02T00:02:09;15.00;99.90
7331;DHT22;3706;49.198;7.064;2023-07-02T00:04:36;15.10;99.90
7331;DHT22;3706;49.198;7.064;2023-07-02T00:07:03;15.20;99.90
7331;DHT22;3706;49.198;7.064;2023-07-02T00:09:32;15.20;99.90
7331;DHT22;3706;49.198;7.064;2023-07-02T00:11:59;15.30;99.90
7331;DHT22;3706;49.198;7.064;2023-07-02T00:14:26;15.40;99.90
7331;DHT22;3706;49.198;7.064;2023-07-02T00:16:52;15.30;99.90
7331;DHT22;3706;49.198;7.064;2023-07-02T00:19:19;15.40;99.90
7331;DHT22;3706;49.198;7.064;2023-07-02T00:21:46;15.30;99.90
7331;DHT22;3706;49.198;7.064;2023-07-02T00:24:13;15.30;99.90
7331;DHT22;3706;49.198;7.064;2023-07-02T00:26:43;15.30;99.90
7331;DHT22;3706;49.198;7.064;2023-07-02T00:29:10;15.20;99.90
7331;DHT22;3706;49.198;7.064;2023-07-02T00:31:37;15.20;99.90
7331;DHT22;3706;49.198;7.064;2023-07-02T00:34:04;15.20;99.90
7331;DHT22;3706;49.198;7.064;2023-07-02T00:36:31;15.20;99.90
7331;DHT22;3706;49.198;7.064;2023-07-02T00:38:58;15.20;99.90
7331;DHT22;3706;49.198;7.064;2023-07-02T00:41:26;15.30;99.90
7331;DHT22;3706;49.198;7.064;2023-07-02T00:43:54;15.30;99.90
7331;DHT22;3706;49.198;7.064;2023-07-02T00:46:22;15.30;99.90
7331;DHT22;3706;49.198;7.064;2023-07-02T00:48:51;15.30;99.90
7331;DHT22;3706;49.198;7.064;2023-07-02T00:51:20;15.30;99.90
7331;DHT22;3706;49.198;7.064;2023-07-02T00:53:49;15.30;99.90
7331;DHT22;3706;49.198;7.064;2023-07-02T00:56:17;15.40;99.90
7331;DHT22;3706;49.198;7.064;2023-07-02T00:58:45;15.40;99.90
7331;DHT22;3706;49.198;7.064;2023-07-02T01:01:15;15.40;99.90
7331;DHT22;3706;49.198;7.064;2023-07-02T01:03:53;15.40;99.90
7331;DHT22;3706;49.198;7.064;2023-07-02T01:06:24;15.40;99.90
7331;DHT22;3706;49.198;7.064;2023-07-02T01:08:53;15.40;99.90
7331;DHT22;3706;49.198;7.064;2023-07-02T01:11:22;15.40;99.90
7331;DHT22;3706;49.198;7.064;2023-07-02T01:13:52;15.40;99.90
7331;DHT22;3706;49.198;7.064;2023-07-02T01:16:22;15.40;99.90
7331;DHT22;3706;49.198;7.064;2023-07-02T01:18:50;15.40;99.90
7331;DHT22;3706;49.198;7.064;2023-07-02T01:21:22;15.40;99.90
7331;DHT22;3706;49.198;7.064;2023-07-02T01:23:49;15.50;99.90
7331;DHT22;3706;49.198;7.064;2023-07-02T01:26:16;15.40;99.90
7331;DHT22;3706;49.198;7.064;2023-07-02T01:28:43;15.40;99.90
7331;DHT22;3706;49.198;7.064;2023-07-02T01:31:11;15.30;99.90
7331;DHT22;3706;49.198;7.064;2023-07-02T01:33:38;15.30;99.90
7331;DHT22;3706;49.198;7.064;2023-07-02T01:36:06;15.20;99.90
7331;DHT22;3706;49.198;7.064;2023-07-02T01:38:34;15.20;99.90
7331;DHT22;3706;49.198;7.064;2023-07-02T01:41:01;15.20;99.90
7331;DHT22;3706;49.198;7.064;2023-07-02T01:43:28;15.20;99.90
7331;DHT22;3706;49.198;7.064;2023-07-02T01:45:57;15.20;99.90
7331;DHT22;3706;49.198;7.064;2023-07-02T01:48:25;15.20;99.90
7331;DHT22;3706;49.198;7.064;2023-07-02T01:50:52;15.20;99.90
7331;DHT22;3706;49.198;7.064;2023-07-02T01:53:18;15.20;99.90
7331;DHT22;3706;49.198;7.064;2023-07-02T01:55:47;15.20;99.90
7331;DHT22;3706;49.198;7.064;2023-07-02T01:58:14;15.10;99.90
7331;DHT22;3706;49.198;7.064;2023-07-02T02:00:41;15.20;99.90
7331;DHT22;3706;49.198;7.064;2023-07-02T02:03:08;15.20;99.90
7331;DHT22;3706;49.198;7.064;2023-07-02T02:05:35;15.30;99.90
7331;DHT22;3706;49.198;7.064;2023-07-02T02:08:03;15.30;99.90
7331;DHT22;3706;49.198;7.064;2023-07-02T02:10:30;15.30;99.90
7331;DHT22;3706;49.198;7.064;2023-07-02T02:12:58;15.20;99.90
7331;DHT22;3706;49.198;7.064;2023-07-02T02:15:25;15.10;99.90
7331;DHT22;3706;49.198;7.064;2023-07-02T02:17:52;15.10;99.90
7331;DHT22;3706;49.198;7.064;2023-07-02T02:20:19;15.00;99.90
7331;DHT22;3706;49.198;7.064;2023-07-02T02:22:46;14.90;99.90
7331;DHT22;3706;49.198;7.064;2023-07-02T02:25:13;14.90;99.90
7331;DHT22;3706;49.198;7.064;2023-07-02T02:27:40;14.80;99.90
7331;DHT22;3706;49.198;7.064;2023-07-02T02:30:10;14.60;99.90
7331;DHT22;3706;49.198;7.064;2023-07-02T02:32:37;14.50;99.90
7331;DHT22;3706;49.198;7.064;2023-07-02T02:35:05;14.40;99.90
7331;DHT22;3706;49.198;7.064;2023-07-02T02:37:34;14.20;99.90
7331;DHT22;3706;49.198;7.064;2023-07-02T02:40:01;14.10;99.90
7331;DHT22;3706;49.198;7.064;2023-07-02T02:42:28;14.00;99.90
7331;DHT22;3706;49.198;7.064;2023-07-02T02:44:55;13.90;99.90
7331;DHT22;3706;49.198;7.064;2023-07-02T02:47:24;13.90;99.90
7331;DHT22;3706;49.198;7.064;2023-07-02T02:49:51;13.90;99.90
7331;DHT22;3706;49.198;7.064;2023-07-02T02:52:18;13.90;99.90
7331;DHT22;3706;49.198;7.064;2023-07-02T02:54:46;13.90;99.90
7331;DHT22;3706;49.198;7.064;2023-07-02T02:57:13;14.00;99.90
7331;DHT22;3706;49.198;7.064;2023-07-02T02:59:40;14.10;99.90
7331;DHT22;3706;49.198;7.064;2023-07-02T03:02:07;14.20;99.90
7331;DHT22;3706;49.198;7.064;2023-07-02T03:04:36;14.20;99.90
7331;DHT22;3706;49.198;7.064;2023-07-02T03:07:05;14.30;99.90
7331;DHT22;3706;49.198;7.064;2023-07-02T03:09:32;14.30;99.90
7331;DHT22;3706;49.198;7.064;2023-07-02T03:12:00;14.40;99.90
7331;DHT22;3706;49.198;7.064;2023-07-02T03:14:27;14.40;99.90
7331;DHT22;3706;49.198;7.064;2023-07-02T03:16:54;14.50;99.90
7331;DHT22;3706;49.198;7.064;2023-07-02T03:19:21;14.50;99.90
7331;DHT22;3706;49.198;7.064;2023-07-02T03:21:49;14.60;99.90
7331;DHT22;3706;49.198;7.064;2023-07-02T03:24:17;14.60;99.90
7331;DHT22;3706;49.198;7.064;2023-07-02T03:26:44;14.50;99.90
7331;DHT22;3706;49.198;7.064;2023-07-02T03:29:12;14.40;99.90
7331;DHT22;3706;49.198;7.064;2023-07-02T03:31:39;14.30;99.90
7331;DHT22;3706;49.198;7.064;2023-07-02T03:34:08;14.20;99.90
7331;DHT22;3706;49.198;7.064;2023-07-02T03:36:35;14.10;99.90
7331;DHT22;3706;49.198;7.064;2023-07-02T03:39:04;14.00;99.90
7331;DHT22;3706;49.198;7.064;2023-07-02T03:41:31;13.90;99.90
7331;DHT22;3706;49.198;7.064;2023-07-02T03:43:58;13.80;99.90
7331;DHT22;3706;49.198;7.064;2023-07-02T03:46:25;13.80;99.90
7331;DHT22;3706;49.198;7.064;2023-07-02T03:48:52;13.90;99.90
7331;DHT22;3706;49.198;7.064;2023-07-02T03:51:19;13.90;99.90
7331;DHT22;3706;49.198;7.064;2023-07-02T03:53:46;13.90;99.90
7331;DHT22;3706;49.198;7.064;2023-07-02T03:56:14;13.90;99.90
7331;DHT22;3706;49.198;7.064;2023-07-02T03:58:41;14.00;99.90
7331;DHT22;3706;49.198;7.064;2023-07-02T04:01:09;14.00;99.90
7331;DHT22;3706;49.198;7.064;2023-07-02T04:03:36;14.10;99.90
7331;DHT22;3706;49.198;7.064;2023-07-02T04:06:03;14.10;99.90
7331;DHT22;3706;49.198;7.064;2023-07-02T04:08:32;14.10;99.90
7331;DHT22;3706;49.198;7.064;2023-07-02T04:11:00;14.20;99.90
7331;DHT22;3706;49.198;7.064;2023-07-02T04:13:28;14.30;99.90
7331;DHT22;3706;49.198;7.064;2023-07-02T04:15:55;14.50;99.90
7331;DHT22;3706;49.198;7.064;2023-07-02T04:18:22;14.50;99.90
7331;DHT22;3706;49.198;7.064;2023-07-02T04:20:49;14.60;99.90
7331;DHT22;3706;49.198;7.064;2023-07-02T04:23:16;14.70;99.90
7331;DHT22;3706;49.198;7.064;2023-07-02T04:25:43;14.90;99.90
7331;DHT22;3706;49.198;7.064;2023-07-02T04:28:10;14.90;99.90
7331;DHT22;3706;49.198;7.064;2023-07-02T04:30:39;15.00;99.90
7331;DHT22;3706;49.198;7.064;2023-07-02T04:33:07;15.00;99.90
7331;DHT22;3706;49.198;7.064;2023-07-02T04:35:34;15.10;99.90
7331;DHT22;3706;49.198;7.064;2023-07-02T04:38:02;15.10;99.90
7331;DHT22;3706;49.198;7.064;2023-07-02T04:40:29;15.10;99.90
7331;DHT22;3706;49.198;7.064;2023-07-02T04:42:56;15.10;99.90
7331;DHT22;3706;49.198;7.064;2023-07-02T04:45:25;15.20;99.90
7331;DHT22;3706;49.198;7.064;2023-07-02T04:47:54;15.30;99.90
7331;DHT22;3706;49.198;7.064;2023-07-02T04:50:21;15.50;99.90
7331;DHT22;3706;49.198;7.064;2023-07-02T04:52:48;15.80;99.90
7331;DHT22;3706;49.198;7.064;2023-07-02T04:55:15;15.90;99.90
7331;DHT22;3706;49.198;7.064;2023-07-02T04:57:42;16.20;99.90
7331;DHT22;3706;49.198;7.064;2023-07-02T05:00:11;16.40;99.90
7331;DHT22;3706;49.198;7.064;2023-07-02T05:02:38;16.60;99.90
7331;DHT22;3706;49.198;7.064;2023-07-02T05:05:09;16.80;99.90
7331;DHT22;3706;49.198;7.064;2023-07-02T05:07:36;17.00;99.90
7331;DHT22;3706;49.198;7.064;2023-07-02T05:10:03;17.20;99.90
7331;DHT22;3706;49.198;7.064;2023-07-02T05:12:30;17.50;99.90
7331;DHT22;3706;49.198;7.064;2023-07-02T05:14:57;17.90;99.90
7331;DHT22;3706;49.198;7.064;2023-07-02T05:17:24;18.00;99.90
7331;DHT22;3706;49.198;7.064;2023-07-02T05:19:52;18.10;99.90
7331;DHT22;3706;49.198;7.064;2023-07-02T05:22:20;18.10;99.90
7331;DHT22;3706;49.198;7.064;2023-07-02T05:24:48;18.10;99.90
7331;DHT22;3706;49.198;7.064;2023-07-02T05:27:15;18.10;99.90
7331;DHT22;3706;49.198;7.064;2023-07-02T05:29:43;18.10;99.90
7331;DHT22;3706;49.198;7.064;2023-07-02T05:32:10;18.00;99.90
7331;DHT22;3706;49.198;7.064;2023-07-02T05:34:37;17.90;99.90
7331;DHT22;3706;49.198;7.064;2023-07-02T05:37:05;17.80;99.90
7331;DHT22;3706;49.198;7.064;2023-07-02T05:39:35;17.80;99.90
7331;DHT22;3706;49.198;7.064;2023-07-02T05:42:02;17.80;99.90
7331;DHT22;3706;49.198;7.064;2023-07-02T05:44:29;18.00;99.90
7331;DHT22;3706;49.198;7.064;2023-07-02T05:46:56;18.20;99.90
7331;DHT22;3706;49.198;7.064;2023-07-02T05:49:23;18.50;99.90
7331;DHT22;3706;49.198;7.064;2023-07-02T05:51:51;18.70;99.90
7331;DHT22;3706;49.198;7.064;2023-07-02T05:54:18;18.80;99.90
7331;DHT22;3706;49.198;7.064;2023-07-02T05:56:47;19.00;99.90
7331;DHT22;3706;49.198;7.064;2023-07-02T05:59:14;19.00;99.90
7331;DHT22;3706;49.198;7.064;2023-07-02T06:01:43;19.10;99.90
7331;DHT22;3706;49.198;7.064;2023-07-02T06:04:13;19.10;99.90
7331;DHT22;3706;49.198;7.064;2023-07-02T06:06:40;19.30;99.90
7331;DHT22;3706;49.198;7.064;2023-07-02T06:09:07;19.70;99.90
7331;DHT22;3706;49.198;7.064;2023-07-02T06:11:34;19.90;99.90
7331;DHT22;3706;49.198;7.064;2023-07-02T06:14:03;20.10;99.90
7331;DHT22;3706;49.198;7.064;2023-07-02T06:16:30;20.20;99.90
7331;DHT22;3706;49.198;7.064;2023-07-02T06:18:57;20.30;99.90
7331;DHT22;3706;49.198;7.064;2023-07-02T06:21:24;20.30;99.90
7331;DHT22;3706;49.198;7.064;2023-07-02T06:23:56;20.50;99.90
7331;DHT22;3706;49.198;7.064;2023-07-02T06:26:23;20.60;99.90
7331;DHT22;3706;49.198;7.064;2023-07-02T06:28:50;20.80;99.90
7331;DHT22;3706;49.198;7.064;2023-07-02T06:31:18;21.30;99.90
7331;DHT22;3706;49.198;7.064;2023-07-02T06:33:46;21.70;99.90
7331;DHT22;3706;49.198;7.064;2023-07-02T06:36:13;22.10;99.90
7331;DHT22;3706;49.198;7.064;2023-07-02T06:38:40;22.20;99.90
7331;DHT22;3706;49.198;7.064;2023-07-02T06:41:07;22.20;99.90
7331;DHT22;3706;49.198;7.064;2023-07-02T06:43:34;22.40;99.90
7331;DHT22;3706;49.198;7.064;2023-07-02T06:46:01;22.90;99.90
7331;DHT22;3706;49.198;7.064;2023-07-02T06:48:30;23.80;99.90
7331;DHT22;3706;49.198;7.064;2023-07-02T06:50:57;24.50;99.90
7331;DHT22;3706;49.198;7.064;2023-07-02T06:53:24;24.90;99.90
7331;DHT22;3706;49.198;7.064;2023-07-02T06:55:51;25.10;99.90
7331;DHT22;3706;49.198;7.064;2023-07-02T06:58:18;24.90;99.50
7331;DHT22;3706;49.198;7.064;2023-07-02T07:00:45;24.80;98.20
7331;DHT22;3706;49.198;7.064;2023-07-02T07:03:12;24.60;97.30
7331;DHT22;3706;49.198;7.064;2023-07-02T07:05:40;24.40;97.80
7331;DHT22;3706;49.198;7.064;2023-07-02T07:08:07;24.50;97.10
7331;DHT22;3706;49.198;7.064;2023-07-02T07:10:34;24.60;97.50
7331;DHT22;3706;49.198;7.064;2023-07-02T07:13:01;24.80;95.60
7331;DHT22;3706;49.198;7.064;2023-07-02T07:15:32;24.80;95.60
7331;DHT22;3706;49.198;7.064;2023-07-02T07:17:59;25.40;94.30
7331;DHT22;3706;49.198;7.064;2023-07-02T07:20:26;25.50;93.30
7331;DHT22;3706;49.198;7.064;2023-07-02T07:22:54;25.30;93.30
7331;DHT22;3706;49.198;7.064;2023-07-02T07:25:21;25.20;93.40
7331;DHT22;3706;49.198;7.064;2023-07-02T07:27:48;25.40;93.20
7331;DHT22;3706;49.198;7.064;2023-07-02T07:30:15;25.20;92.80
7331;DHT22;3706;49.198;7.064;2023-07-02T07:32:48;24.70;92.80
7331;DHT22;3706;49.198;7.064;2023-07-02T07:35:15;24.00;92.90
7331;DHT22;3706;49.198;7.064;2023-07-02T07:37:42;23.40;94.20
7331;DHT22;3706;49.198;7.064;2023-07-02T07:40:12;23.70;95.20
7331;DHT22;3706;49.198;7.064;2023-07-02T07:42:39;24.80;94.10
7331;DHT22;3706;49.198;7.064;2023-07-02T07:45:06;25.70;92.10
7331;DHT22;3706;49.198;7.064;2023-07-02T07:47:34;26.50;90.60
7331;DHT22;3706;49.198;7.064;2023-07-02T07:50:01;27.30;88.70
7331;DHT22;3706;49.198;7.064;2023-07-02T07:52:28;27.50;84.70
7331;DHT22;3706;49.198;7.064;2023-07-02T07:54:55;27.30;83.10
7331;DHT22;3706;49.198;7.064;2023-07-02T07:57:24;26.90;82.40
7331;DHT22;3706;49.198;7.064;2023-07-02T07:59:51;26.30;83.40
7331;DHT22;3706;49.198;7.064;2023-07-02T08:02:17;25.60;85.10
7331;DHT22;3706;49.198;7.064;2023-07-02T08:04:44;25.40;87.20
7331;DHT22;3706;49.198;7.064;2023-07-02T08:07:11;26.10;86.20
7331;DHT22;3706;49.198;7.064;2023-07-02T08:09:38;26.50;84.40
7331;DHT22;3706;49.198;7.064;2023-07-02T08:12:06;26.10;83.10
7331;DHT22;3706;49.198;7.064;2023-07-02T08:14:35;25.50;84.30
7331;DHT22;3706;49.198;7.064;2023-07-02T08:17:02;25.00;86.10
7331;DHT22;3706;49.198;7.064;2023-07-02T08:19:29;24.90;86.50
7331;DHT22;3706;49.198;7.064;2023-07-02T08:21:56;24.80;84.70
7331;DHT22;3706;49.198;7.064;2023-07-02T08:24:23;24.30;85.30
7331;DHT22;3706;49.198;7.064;2023-07-02T08:26:50;23.80;86.60
7331;DHT22;3706;49.198;7.064;2023-07-02T08:29:17;23.20;87.80
7331;DHT22;3706;49.198;7.064;2023-07-02T08:31:46;23.30;89.30
7331;DHT22;3706;49.198;7.064;2023-07-02T08:34:13;24.70;87.60
7331;DHT22;3706;49.198;7.064;2023-07-02T08:36:40;26.60;83.00
7331;DHT22;3706;49.198;7.064;2023-07-02T08:39:09;28.10;76.60
7331;DHT22;3706;49.198;7.064;2023-07-02T08:41:42;28.60;75.50
7331;DHT22;3706;49.198;7.064;2023-07-02T08:44:11;29.20;74.00
7331;DHT22;3706;49.198;7.064;2023-07-02T08:46:38;30.50;71.00
7331;DHT22;3706;49.198;7.064;2023-07-02T08:49:07;30.90;68.30
7331;DHT22;3706;49.198;7.064;2023-07-02T08:51:35;31.00;67.40
7331;DHT22;3706;49.198;7.064;2023-07-02T08:54:02;31.10;66.80
7331;DHT22;3706;49.198;7.064;2023-07-02T08:56:30;30.10;65.70
7331;DHT22;3706;49.198;7.064;2023-07-02T08:58:57;28.60;68.20
7331;DHT22;3706;49.198;7.064;2023-07-02T09:01:24;27.90;71.50
7331;DHT22;3706;49.198;7.064;2023-07-02T09:03:51;27.30;72.40
7331;DHT22;3706;49.198;7.064;2023-07-02T09:06:20;27.70;70.00
7331;DHT22;3706;49.198;7.064;2023-07-02T09:08:47;28.60;68.70
7331;DHT22;3706;49.198;7.064;2023-07-02T09:11:15;28.70;67.00
7331;DHT22;3706;49.198;7.064;2023-07-02T09:13:47;28.10;67.60
7331;DHT22;3706;49.198;7.064;2023-07-02T09:16:21;27.90;67.70
7331;DHT22;3706;49.198;7.064;2023-07-02T09:19:02;27.80;68.00
7331;DHT22;3706;49.198;7.064;2023-07-02T09:21:41;27.80;67.80
7331;DHT22;3706;49.198;7.064;2023-07-02T09:24:15;28.40;68.00
7331;DHT22;3706;49.198;7.064;2023-07-02T09:26:43;29.70;64.80
7331;DHT22;3706;49.198;7.064;2023-07-02T09:29:12;31.00;60.40
7331;DHT22;3706;49.198;7.064;2023-07-02T09:31:46;31.90;60.00
7331;DHT22;3706;49.198;7.064;2023-07-02T09:34:14;32.50;58.00
7331;DHT22;3706;49.198;7.064;2023-07-02T09:36:43;32.50;57.10
7331;DHT22;3706;49.198;7.064;2023-07-02T09:39:12;32.10;57.70
7331;DHT22;3706;49.198;7.064;2023-07-02T09:41:40;31.90;57.70
7331;DHT22;3706;49.198;7.064;2023-07-02T09:44:08;32.30;55.90
7331;DHT22;3706;49.198;7.064;2023-07-02T09:46:37;32.80;54.30
7331;DHT22;3706;49.198;7.064;2023-07-02T09:49:14;33.20;53.80
7331;DHT22;3706;49.198;7.064;2023-07-02T09:51:43;33.50;52.80
7331;DHT22;3706;49.198;7.064;2023-07-02T09:54:11;32.60;53.20
7331;DHT22;3706;49.198;7.064;2023-07-02T09:56:39;31.40;55.20
7331;DHT22;3706;49.198;7.064;2023-07-02T09:59:06;30.20;56.70
7331;DHT22;3706;49.198;7.064;2023-07-02T10:01:33;29.50;59.10
7331;DHT22;3706;49.198;7.064;2023-07-02T10:04:11;28.90;60.50
7331;DHT22;3706;49.198;7.064;2023-07-02T10:06:46;29.10;61.10
7331;DHT22;3706;49.198;7.064;2023-07-02T10:09:13;30.20;59.80
7331;DHT22;3706;49.198;7.064;2023-07-02T10:11:40;31.60;57.80
7331;DHT22;3706;49.198;7.064;2023-07-02T10:14:07;32.80;54.60
7331;DHT22;3706;49.198;7.064;2023-07-02T10:16:47;33.00;53.90
7331;DHT22;3706;49.198;7.064;2023-07-02T10:19:14;33.10;52.70
7331;DHT22;3706;49.198;7.064;2023-07-02T10:21:45;32.80;52.20
7331;DHT22;3706;49.198;7.064;2023-07-02T10:24:16;31.90;53.70
7331;DHT22;3706;49.198;7.064;2023-07-02T10:26:54;31.70;55.10
7331;DHT22;3706;49.198;7.064;2023-07-02T10:29:22;31.90;54.20
7331;DHT22;3706;49.198;7.064;2023-07-02T10:31:50;32.60;53.10
7331;DHT22;3706;49.198;7.064;2023-07-02T10:34:28;32.40;52.40
7331;DHT22;3706;49.198;7.064;2023-07-02T10:36:56;31.50;53.80
7331;DHT22;3706;49.198;7.064;2023-07-02T10:39:24;31.60;53.70
7331;DHT22;3706;49.198;7.064;2023-07-02T10:41:52;32.10;54.30
7331;DHT22;3706;49.198;7.064;2023-07-02T10:44:19;31.80;53.70
7331;DHT22;3706;49.198;7.064;2023-07-02T10:46:46;31.10;55.40
7331;DHT22;3706;49.198;7.064;2023-07-02T10:49:13;30.00;56.20
7331;DHT22;3706;49.198;7.064;2023-07-02T10:51:40;28.80;58.10
7331;DHT22;3706;49.198;7.064;2023-07-02T10:54:09;27.60;60.40
7331;DHT22;3706;49.198;7.064;2023-07-02T10:56:38;26.60;62.60
7331;DHT22;3706;49.198;7.064;2023-07-02T10:59:05;25.90;64.90
7331;DHT22;3706;49.198;7.064;2023-07-02T11:01:32;25.70;64.90
7331;DHT22;3706;49.198;7.064;2023-07-02T11:04:00;26.50;64.20
7331;DHT22;3706;49.198;7.064;2023-07-02T11:06:28;27.50;62.60
7331;DHT22;3706;49.198;7.064;2023-07-02T11:08:56;28.60;60.50
7331;DHT22;3706;49.198;7.064;2023-07-02T11:11:25;28.70;59.40
7331;DHT22;3706;49.198;7.064;2023-07-02T11:13:53;28.00;59.80
7331;DHT22;3706;49.198;7.064;2023-07-02T11:16:21;27.20;61.70
7331;DHT22;3706;49.198;7.064;2023-07-02T11:18:52;26.70;62.70
7331;DHT22;3706;49.198;7.064;2023-07-02T11:21:19;26.40;63.00
7331;DHT22;3706;49.198;7.064;2023-07-02T11:23:46;26.30;63.40
7331;DHT22;3706;49.198;7.064;2023-07-02T11:26:13;26.70;62.80
7331;DHT22;3706;49.198;7.064;2023-07-02T11:28:50;27.40;62.70
7331;DHT22;3706;49.198;7.064;2023-07-02T11:31:26;28.60;59.80
7331;DHT22;3706;49.198;7.064;2023-07-02T11:33:53;29.90;58.00
7331;DHT22;3706;49.198;7.064;2023-07-02T11:36:22;30.70;55.40
7331;DHT22;3706;49.198;7.064;2023-07-02T11:38:51;31.20;54.50
7331;DHT22;3706;49.198;7.064;2023-07-02T11:41:19;31.20;53.80
7331;DHT22;3706;49.198;7.064;2023-07-02T11:43:46;30.80;54.70
7331;DHT22;3706;49.198;7.064;2023-07-02T11:46:15;30.00;55.80
7331;DHT22;3706;49.198;7.064;2023-07-02T11:48:42;29.10;58.20
7331;DHT22;3706;49.198;7.064;2023-07-02T11:51:09;28.00;59.00
7331;DHT22;3706;49.198;7.064;2023-07-02T11:53:36;27.00;61.00
7331;DHT22;3706;49.198;7.064;2023-07-02T11:56:03;26.40;62.70
7331;DHT22;3706;49.198;7.064;2023-07-02T11:58:30;26.10;63.70
7331;DHT22;3706;49.198;7.064;2023-07-02T12:00:57;25.70;64.30
7331;DHT22;3706;49.198;7.064;2023-07-02T12:03:25;25.50;65.20
7331;DHT22;3706;49.198;7.064;2023-07-02T12:05:52;25.60;65.80
7331;DHT22;3706;49.198;7.064;2023-07-02T12:08:19;25.90;63.50
7331;DHT22;3706;49.198;7.064;2023-07-02T12:10:46;26.80;63.00
7331;DHT22;3706;49.198;7.064;2023-07-02T12:13:13;27.80;61.50
7331;DHT22;3706;49.198;7.064;2023-07-02T12:15:40;28.40;59.60
7331;DHT22;3706;49.198;7.064;2023-07-02T12:18:08;28.80;59.40
7331;DHT22;3706;49.198;7.064;2023-07-02T12:20:37;29.10;58.80
7331;DHT22;3706;49.198;7.064;2023-07-02T12:23:04;29.10;58.10
7331;DHT22;3706;49.198;7.064;2023-07-02T12:25:31;28.80;58.70
7331;DHT22;3706;49.198;7.064;2023-07-02T12:27:58;28.60;59.10
7331;DHT22;3706;49.198;7.064;2023-07-02T12:30:25;28.80;58.20
7331;DHT22;3706;49.198;7.064;2023-07-02T12:32:52;28.50;58.00
7331;DHT22;3706;49.198;7.064;2023-07-02T12:35:19;28.10;59.50
7331;DHT22;3706;49.198;7.064;2023-07-02T12:37:49;28.00;60.40
7331;DHT22;3706;49.198;7.064;2023-07-02T12:40:17;28.00;61.10
7331;DHT22;3706;49.198;7.064;2023-07-02T12:42:45;28.10;60.40
7331;DHT22;3706;49.198;7.064;2023-07-02T12:45:13;28.50;60.00
7331;DHT22;3706;49.198;7.064;2023-07-02T12:47:41;29.00;58.00
7331;DHT22;3706;49.198;7.064;2023-07-02T12:50:09;29.50;56.50
7331;DHT22;3706;49.198;7.064;2023-07-02T12:52:36;30.00;56.10
7331;DHT22;3706;49.198;7.064;2023-07-02T12:55:05;30.50;55.00
7331;DHT22;3706;49.198;7.064;2023-07-02T12:57:33;30.80;54.00
7331;DHT22;3706;49.198;7.064;2023-07-02T13:00:01;30.20;56.00
7331;DHT22;3706;49.198;7.064;2023-07-02T13:02:31;29.50;56.60
7331;DHT22;3706;49.198;7.064;2023-07-02T13:04:58;28.70;57.50
7331;DHT22;3706;49.198;7.064;2023-07-02T13:07:24;28.20;58.80
7331;DHT22;3706;49.198;7.064;2023-07-02T13:09:51;27.60;60.20
7331;DHT22;3706;49.198;7.064;2023-07-02T13:12:20;27.30;61.30
7331;DHT22;3706;49.198;7.064;2023-07-02T13:14:47;27.20;61.20
7331;DHT22;3706;49.198;7.064;2023-07-02T13:17:14;27.00;61.50
7331;DHT22;3706;49.198;7.064;2023-07-02T13:19:41;27.00;62.40
7331;DHT22;3706;49.198;7.064;2023-07-02T13:22:08;27.00;62.60
7331;DHT22;3706;49.198;7.064;2023-07-02T13:24:36;27.10;61.50
7331;DHT22;3706;49.198;7.064;2023-07-02T13:27:09;27.00;61.20
7331;DHT22;3706;49.198;7.064;2023-07-02T13:29:39;27.00;61.00
7331;DHT22;3706;49.198;7.064;2023-07-02T13:32:07;26.70;61.00
7331;DHT22;3706;49.198;7.064;2023-07-02T13:34:34;26.60;61.90
7331;DHT22;3706;49.198;7.064;2023-07-02T13:37:01;26.70;62.40
7331;DHT22;3706;49.198;7.064;2023-07-02T13:39:29;26.80;62.80
7331;DHT22;3706;49.198;7.064;2023-07-02T13:41:56;26.70;62.20
7331;DHT22;3706;49.198;7.064;2023-07-02T13:44:23;26.60;62.00
7331;DHT22;3706;49.198;7.064;2023-07-02T13:46:51;26.50;61.30
7331;DHT22;3706;49.198;7.064;2023-07-02T13:49:19;26.50;61.70
7331;DHT22;3706;49.198;7.064;2023-07-02T13:51:47;26.40;61.40
7331;DHT22;3706;49.198;7.064;2023-07-02T13:54:15;26.30;62.00
7331;DHT22;3706;49.198;7.064;2023-07-02T13:56:44;26.20;62.90
7331;DHT22;3706;49.198;7.064;2023-07-02T13:59:13;26.10;63.20
7331;DHT22;3706;49.198;7.064;2023-07-02T14:01:40;26.00;63.90
7331;DHT22;3706;49.198;7.064;2023-07-02T14:04:07;25.90;63.60
7331;DHT22;3706;49.198;7.064;2023-07-02T14:06:34;25.70;63.90
7331;DHT22;3706;49.198;7.064;2023-07-02T14:09:02;25.50;63.90
7331;DHT22;3706;49.198;7.064;2023-07-02T14:11:29;25.40;64.20
7331;DHT22;3706;49.198;7.064;2023-07-02T14:13:56;25.40;64.80
7331;DHT22;3706;49.198;7.064;2023-07-02T14:16:24;25.50;64.80
7331;DHT22;3706;49.198;7.064;2023-07-02T14:18:51;25.40;64.70
7331;DHT22;3706;49.198;7.064;2023-07-02T14:21:18;25.40;64.60
7331;DHT22;3706;49.198;7.064;2023-07-02T14:23:45;25.40;64.50
7331;DHT22;3706;49.198;7.064;2023-07-02T14:26:12;25.40;64.50
7331;DHT22;3706;49.198;7.064;2023-07-02T14:28:39;25.70;64.10
7331;DHT22;3706;49.198;7.064;2023-07-02T14:31:07;25.90;63.80
7331;DHT22;3706;49.198;7.064;2023-07-02T14:33:37;25.80;62.90
7331;DHT22;3706;49.198;7.064;2023-07-02T14:36:04;25.70;63.80
7331;DHT22;3706;49.198;7.064;2023-07-02T14:38:32;25.90;63.20
7331;DHT22;3706;49.198;7.064;2023-07-02T14:41:00;26.10;63.00
7331;DHT22;3706;49.198;7.064;2023-07-02T14:43:29;25.90;63.00
7331;DHT22;3706;49.198;7.064;2023-07-02T14:45:57;25.90;63.60
7331;DHT22;3706;49.198;7.064;2023-07-02T14:48:24;26.00;63.30
7331;DHT22;3706;49.198;7.064;2023-07-02T14:50:54;25.90;62.70
7331;DHT22;3706;49.198;7.064;2023-07-02T14:53:23;25.80;63.20
7331;DHT22;3706;49.198;7.064;2023-07-02T14:55:53;25.80;63.50
7331;DHT22;3706;49.198;7.064;2023-07-02T14:58:20;25.90;63.00
7331;DHT22;3706;49.198;7.064;2023-07-02T15:00:48;26.30;62.50
7331;DHT22;3706;49.198;7.064;2023-07-02T15:03:15;26.70;61.70
7331;DHT22;3706;49.198;7.064;2023-07-02T15:05:45;26.70;60.80
7331;DHT22;3706;49.198;7.064;2023-07-02T15:08:14;26.60;60.70
7331;DHT22;3706;49.198;7.064;2023-07-02T15:10:46;26.30;61.10
7331;DHT22;3706;49.198;7.064;2023-07-02T15:13:13;26.20;61.90
7331;DHT22;3706;49.198;7.064;2023-07-02T15:15:42;26.30;61.90
7331;DHT22;3706;49.198;7.064;2023-07-02T15:18:09;26.50;61.30
7331;DHT22;3706;49.198;7.064;2023-07-02T15:20:36;26.70;60.80
7331;DHT22;3706;49.198;7.064;2023-07-02T15:23:03;26.60;60.20
7331;DHT22;3706;49.198;7.064;2023-07-02T15:25:32;26.40;60.00
7331;DHT22;3706;49.198;7.064;2023-07-02T15:27:59;26.30;60.80
7331;DHT22;3706;49.198;7.064;2023-07-02T15:30:26;26.10;60.90
7331;DHT22;3706;49.198;7.064;2023-07-02T15:32:53;25.90;61.10
7331;DHT22;3706;49.198;7.064;2023-07-02T15:35:21;25.80;61.30
7331;DHT22;3706;49.198;7.064;2023-07-02T15:37:48;25.90;61.60
7331;DHT22;3706;49.198;7.064;2023-07-02T15:40:15;26.00;61.40
7331;DHT22;3706;49.198;7.064;2023-07-02T15:42:43;26.00;61.60
7331;DHT22;3706;49.198;7.064;2023-07-02T15:45:10;26.00;60.40
7331;DHT22;3706;49.198;7.064;2023-07-02T15:47:37;25.80;60.80
7331;DHT22;3706;49.198;7.064;2023-07-02T15:50:05;25.60;61.50
7331;DHT22;3706;49.198;7.064;2023-07-02T15:52:32;25.60;61.60
7331;DHT22;3706;49.198;7.064;2023-07-02T15:54:59;25.60;61.40
7331;DHT22;3706;49.198;7.064;2023-07-02T15:57:26;25.30;61.70
7331;DHT22;3706;49.198;7.064;2023-07-02T15:59:54;25.00;61.60
7331;DHT22;3706;49.198;7.064;2023-07-02T16:02:21;24.70;62.20
7331;DHT22;3706;49.198;7.064;2023-07-02T16:04:49;24.60;62.80
7331;DHT22;3706;49.198;7.064;2023-07-02T16:07:16;24.50;63.20